Volgo-balt 229 — UHZF — position and weather

sailwx.info

Track history (hours):
 
Tides and Currents Weather Stations Pressure Air Temp Water Temp Dewpoint Dewpoint Depression Visibility Wind Speed Wind Dir Waves Ship Positions

Volgo-balt 229

Last reported at 2016-Aug-22 02:29 UTC. Time now 2016-Aug-28 22:24 UTC.
Position N 59°49' E 030°35'.

Length 113 m; draft 2.6 m.

Type: Ship. MMSI: 273336300.

Date/timePositionNaut miles runAvg speedWind from/ knotsBaromVisibWave heightAir tempDewpointWater temp
2016-Aug-22 02:29N 59°49' E 030°35'5 5.3
2016-Aug-22 01:33N 59°52' E 030°28'4 3.9
2016-Aug-22 00:33N 59°56' E 030°24'0 0.3
2016-Aug-21 23:33N 59°56' E 030°24'3 3.4
2016-Aug-21 22:33N 59°56' E 030°17'0 0.0
2016-Aug-21 21:32N 59°56' E 030°17'0 0.0
2016-Aug-21 20:32N 59°56' E 030°17'0 0.0
2016-Aug-21 19:32N 59°56' E 030°17'0 0.0
2016-Aug-21 18:32N 59°56' E 030°17'0 0.0
2016-Aug-21 17:32N 59°56' E 030°17'0 0.0
2016-Aug-21 16:32N 59°56' E 030°17'0 0.0
2016-Aug-21 15:32N 59°56' E 030°17'0 0.0
2016-Aug-21 14:32N 59°56' E 030°17'0 0.0
2016-Aug-21 13:32N 59°56' E 030°17'0 0.0
2016-Aug-21 12:32N 59°56' E 030°17'0 0.0
2016-Aug-21 11:32N 59°56' E 030°17'0 0.0
2016-Aug-21 10:32N 59°56' E 030°17'0 0.0
2016-Aug-21 09:33N 59°56' E 030°17'1 1.4
2016-Aug-21 08:33N 59°55' E 030°15'0 0.0
2016-Aug-21 07:33N 59°55' E 030°15'0 0.0
2016-Aug-21 06:33N 59°55' E 030°15'6 5.5
2016-Aug-21 05:33N 59°56' E 030°05'8 7.9
2016-Aug-21 04:31N 59°58' E 029°49'14 4.5
2016-Aug-21 01:17N 60°01' E 029°21'6 1.1
2016-Aug-20 19:31N 60°02' E 029°09'9 8.5
2016-Aug-20 18:24N 60°02' E 028°50'7 8.5
2016-Aug-20 17:33N 60°02' E 028°35'8 7.6
2016-Aug-20 16:33N 60°05' E 028°21'8 7.7
2016-Aug-20 15:33N 60°08' E 028°07'8 7.9
2016-Aug-20 14:33N 60°10' E 027°52'15 7.5
2016-Aug-20 12:33N 60°04' E 027°24'8 7.7
2016-Aug-20 11:33N 59°60' E 027°11'7 7.2
2016-Aug-20 10:33N 59°58' E 026°57'8 7.8
2016-Aug-20 09:33N 59°59' E 026°42'8 7.8
2016-Aug-20 08:33N 59°57' E 026°27'8 7.6
2016-Aug-20 07:32N 59°55' E 026°12'39 7.7
2016-Aug-20 02:29N 59°46' E 024°57'7 7.3
2016-Aug-20 01:33N 59°45' E 024°43'33 7.7
2016-Aug-19 21:15N 59°35' E 023°40'5 7.8
2016-Aug-19 20:33N 59°34' E 023°30'256 8.0
2016-Aug-18 12:33N 57°14' E 016°41'7 7.0
2016-Aug-18 11:33N 57°08' E 016°34'2 2.0
2016-Aug-18 10:23N 57°06' E 016°33'0 0.0
2016-Aug-18 09:32N 57°06' E 016°33'0 0.0
2016-Aug-18 07:29N 57°06' E 016°33'0 0.0
2016-Aug-18 06:32N 57°06' E 016°33'0 0.0
2016-Aug-18 05:32N 57°06' E 016°33'0 0.0
2016-Aug-18 01:32N 57°06' E 016°33'0 0.0
2016-Aug-18 00:29N 57°06' E 016°33'0 0.0
2016-Aug-17 23:32N 57°06' E 016°33'0 0.0
2016-Aug-17 05:29N 57°06' E 016°34'0 0.0
2016-Aug-17 04:26N 57°06' E 016°34'0 0.0
2016-Aug-17 03:29N 57°06' E 016°34'0 0.0
2016-Aug-17 02:29N 57°06' E 016°34'0 0.0
2016-Aug-17 01:29N 57°06' E 016°34'0 0.0
2016-Aug-16 23:10N 57°06' E 016°34'0 0.0
2016-Aug-16 20:04N 57°06' E 016°34'2 0.5
2016-Aug-16 15:30N 57°09' E 016°34'2 0.4
2016-Aug-16 09:28N 57°10' E 016°37'1 1.1
2016-Aug-16 08:33N 57°11' E 016°38'253 7.2
2016-Aug-14 21:31N 59°37' E 023°13'8 8.0
2016-Aug-14 20:33N 59°39' E 023°27'9 8.2
2016-Aug-14 19:31N 59°42' E 023°44'130 7.6
2016-Aug-14 02:24N 60°11' E 027°57'7 7.7
2016-Aug-14 01:32N 60°09' E 028°10'7 7.5
2016-Aug-14 00:33N 60°06' E 028°23'8 7.6
2016-Aug-13 23:33N 60°03' E 028°37'8 7.5
2016-Aug-13 22:30N 60°03' E 028°53'23 7.6
2016-Aug-13 19:28N 59°60' E 029°39'9 8.4
2016-Aug-13 18:21N 59°56' E 029°56'7 8.4
2016-Aug-13 17:33N 59°54' E 030°09'3 2.8
2016-Aug-13 16:33N 59°55' E 030°14'0 0.0
2016-Aug-13 15:31N 59°55' E 030°14'0 0.0
2016-Aug-13 14:31N 59°55' E 030°14'0 0.0
2016-Aug-13 13:31N 59°55' E 030°14'0 0.0
2016-Aug-13 12:31N 59°55' E 030°14'0 0.0
2016-Aug-13 11:33N 59°55' E 030°14'0 0.0
2016-Aug-13 10:33N 59°55' E 030°14'0 0.0
2016-Aug-13 09:33N 59°55' E 030°14'0 0.0
2016-Aug-13 08:33N 59°55' E 030°14'0 0.0
2016-Aug-13 07:33N 59°55' E 030°14'0 0.0
2016-Aug-13 06:33N 59°55' E 030°14'0 0.0
2016-Aug-13 05:33N 59°55' E 030°14'0 0.0
2016-Aug-13 04:33N 59°55' E 030°14'0 0.0
2016-Aug-13 03:33N 59°55' E 030°14'0 0.0
2016-Aug-13 02:34N 59°55' E 030°14'0 0.0
2016-Aug-13 01:34N 59°55' E 030°14'5 4.9
2016-Aug-13 00:33N 59°57' E 030°22'7 7.4
2016-Aug-12 23:33N 59°51' E 030°30'1 1.0
2016-Aug-12 22:32N 59°50' E 030°31'0 0.0
2016-Aug-12 21:20N 59°50' E 030°31'0 0.0
2016-Aug-12 20:25N 59°50' E 030°31'0 0.0
2016-Aug-12 19:31N 59°50' E 030°31'0 0.0
2016-Aug-12 17:31N 59°50' E 030°31'0 0.0
2016-Aug-12 15:25N 59°50' E 030°31'0 0.0
2016-Aug-12 14:07N 59°50' E 030°31'0 0.0
2016-Aug-12 13:25N 59°50' E 030°31'0 0.0
2016-Aug-12 08:31N 59°50' E 030°31'0 0.0
2016-Aug-12 07:07N 59°50' E 030°31'0 0.0
2016-Aug-12 06:28N 59°50' E 030°31'0 0.0
2016-Aug-12 05:25N 59°50' E 030°31'0 0.0
2016-Aug-12 04:33N 59°50' E 030°31'0 0.0
2016-Aug-12 03:32N 59°50' E 030°31'0 0.0
2016-Aug-12 02:33N 59°50' E 030°31'  
Track history (hours):
 
Tides and Currents Weather Stations Pressure Air Temp Water Temp Dewpoint Dewpoint Depression Visibility Wind Speed Wind Dir Waves Ship Positions

Volgo-balt 229

Last reported at 2016-Aug-22 02:29 UTC. Time now 2016-Aug-28 22:24 UTC.
Position N 59°49' E 030°35'.

Length 113 m; draft 2.6 m.

Type: Ship. MMSI: 273336300.

Date/timePositionNaut miles runAvg speedWind from/ knotsBaromVisibWave heightAir tempDewpointWater temp
2016-Aug-22 02:29N 59°49' E 030°35'5 5.3
2016-Aug-22 01:33N 59°52' E 030°28'4 3.9
2016-Aug-22 00:33N 59°56' E 030°24'0 0.3
2016-Aug-21 23:33N 59°56' E 030°24'3 3.4
2016-Aug-21 22:33N 59°56' E 030°17'0 0.0
2016-Aug-21 21:32N 59°56' E 030°17'0 0.0
2016-Aug-21 20:32N 59°56' E 030°17'0 0.0
2016-Aug-21 19:32N 59°56' E 030°17'0 0.0
2016-Aug-21 18:32N 59°56' E 030°17'0 0.0
2016-Aug-21 17:32N 59°56' E 030°17'0 0.0
2016-Aug-21 16:32N 59°56' E 030°17'0 0.0
2016-Aug-21 15:32N 59°56' E 030°17'0 0.0
2016-Aug-21 14:32N 59°56' E 030°17'0 0.0
2016-Aug-21 13:32N 59°56' E 030°17'0 0.0
2016-Aug-21 12:32N 59°56' E 030°17'0 0.0
2016-Aug-21 11:32N 59°56' E 030°17'0 0.0
2016-Aug-21 10:32N 59°56' E 030°17'0 0.0
2016-Aug-21 09:33N 59°56' E 030°17'1 1.4
2016-Aug-21 08:33N 59°55' E 030°15'0 0.0
2016-Aug-21 07:33N 59°55' E 030°15'0 0.0
2016-Aug-21 06:33N 59°55' E 030°15'6 5.5
2016-Aug-21 05:33N 59°56' E 030°05'8 7.9
2016-Aug-21 04:31N 59°58' E 029°49'14 4.5
2016-Aug-21 01:17N 60°01' E 029°21'6 1.1
2016-Aug-20 19:31N 60°02' E 029°09'9 8.5
2016-Aug-20 18:24N 60°02' E 028°50'7 8.5
2016-Aug-20 17:33N 60°02' E 028°35'8 7.6
2016-Aug-20 16:33N 60°05' E 028°21'8 7.7
2016-Aug-20 15:33N 60°08' E 028°07'8 7.9
2016-Aug-20 14:33N 60°10' E 027°52'15 7.5
2016-Aug-20 12:33N 60°04' E 027°24'8 7.7
2016-Aug-20 11:33N 59°60' E 027°11'7 7.2
2016-Aug-20 10:33N 59°58' E 026°57'8 7.8
2016-Aug-20 09:33N 59°59' E 026°42'8 7.8
2016-Aug-20 08:33N 59°57' E 026°27'8 7.6
2016-Aug-20 07:32N 59°55' E 026°12'39 7.7
2016-Aug-20 02:29N 59°46' E 024°57'7 7.3
2016-Aug-20 01:33N 59°45' E 024°43'33 7.7
2016-Aug-19 21:15N 59°35' E 023°40'5 7.8
2016-Aug-19 20:33N 59°34' E 023°30'256 8.0
2016-Aug-18 12:33N 57°14' E 016°41'7 7.0
2016-Aug-18 11:33N 57°08' E 016°34'2 2.0
2016-Aug-18 10:23N 57°06' E 016°33'0 0.0
2016-Aug-18 09:32N 57°06' E 016°33'0 0.0
2016-Aug-18 07:29N 57°06' E 016°33'0 0.0
2016-Aug-18 06:32N 57°06' E 016°33'0 0.0
2016-Aug-18 05:32N 57°06' E 016°33'0 0.0
2016-Aug-18 01:32N 57°06' E 016°33'0 0.0
2016-Aug-18 00:29N 57°06' E 016°33'0 0.0
2016-Aug-17 23:32N 57°06' E 016°33'0 0.0
2016-Aug-17 05:29N 57°06' E 016°34'0 0.0
2016-Aug-17 04:26N 57°06' E 016°34'0 0.0
2016-Aug-17 03:29N 57°06' E 016°34'0 0.0
2016-Aug-17 02:29N 57°06' E 016°34'0 0.0
2016-Aug-17 01:29N 57°06' E 016°34'0 0.0
2016-Aug-16 23:10N 57°06' E 016°34'0 0.0
2016-Aug-16 20:04N 57°06' E 016°34'2 0.5
2016-Aug-16 15:30N 57°09' E 016°34'2 0.4
2016-Aug-16 09:28N 57°10' E 016°37'1 1.1
2016-Aug-16 08:33N 57°11' E 016°38'253 7.2
2016-Aug-14 21:31N 59°37' E 023°13'8 8.0
2016-Aug-14 20:33N 59°39' E 023°27'9 8.2
2016-Aug-14 19:31N 59°42' E 023°44'130 7.6
2016-Aug-14 02:24N 60°11' E 027°57'7 7.7
2016-Aug-14 01:32N 60°09' E 028°10'7 7.5
2016-Aug-14 00:33N 60°06' E 028°23'8 7.6
2016-Aug-13 23:33N 60°03' E 028°37'8 7.5
2016-Aug-13 22:30N 60°03' E 028°53'23 7.6
2016-Aug-13 19:28N 59°60' E 029°39'9 8.4
2016-Aug-13 18:21N 59°56' E 029°56'7 8.4
2016-Aug-13 17:33N 59°54' E 030°09'3 2.8
2016-Aug-13 16:33N 59°55' E 030°14'0 0.0
2016-Aug-13 15:31N 59°55' E 030°14'0 0.0
2016-Aug-13 14:31N 59°55' E 030°14'0 0.0
2016-Aug-13 13:31N 59°55' E 030°14'0 0.0
2016-Aug-13 12:31N 59°55' E 030°14'0 0.0
2016-Aug-13 11:33N 59°55' E 030°14'0 0.0
2016-Aug-13 10:33N 59°55' E 030°14'0 0.0
2016-Aug-13 09:33N 59°55' E 030°14'0 0.0
2016-Aug-13 08:33N 59°55' E 030°14'0 0.0
2016-Aug-13 07:33N 59°55' E 030°14'0 0.0
2016-Aug-13 06:33N 59°55' E 030°14'0 0.0
2016-Aug-13 05:33N 59°55' E 030°14'0 0.0
2016-Aug-13 04:33N 59°55' E 030°14'0 0.0
2016-Aug-13 03:33N 59°55' E 030°14'0 0.0
2016-Aug-13 02:34N 59°55' E 030°14'0 0.0
2016-Aug-13 01:34N 59°55' E 030°14'5 4.9
2016-Aug-13 00:33N 59°57' E 030°22'7 7.4
2016-Aug-12 23:33N 59°51' E 030°30'1 1.0
2016-Aug-12 22:32N 59°50' E 030°31'0 0.0
2016-Aug-12 21:20N 59°50' E 030°31'0 0.0
2016-Aug-12 20:25N 59°50' E 030°31'0 0.0
2016-Aug-12 19:31N 59°50' E 030°31'0 0.0
2016-Aug-12 17:31N 59°50' E 030°31'0 0.0
2016-Aug-12 15:25N 59°50' E 030°31'0 0.0
2016-Aug-12 14:07N 59°50' E 030°31'0 0.0
2016-Aug-12 13:25N 59°50' E 030°31'0 0.0
2016-Aug-12 08:31N 59°50' E 030°31'0 0.0
2016-Aug-12 07:07N 59°50' E 030°31'0 0.0
2016-Aug-12 06:28N 59°50' E 030°31'0 0.0
2016-Aug-12 05:25N 59°50' E 030°31'0 0.0
2016-Aug-12 04:33N 59°50' E 030°31'0 0.0
2016-Aug-12 03:32N 59°50' E 030°31'0 0.0
2016-Aug-12 02:33N 59°50' E 030°31'  

Dump ship's entire track history